Time;durP1;ratioP1;P1;durP2;ratioP2;P2;SDS_P1;SDS_P2;PMS_P1;PMS_P2;Temp;Humidity;BMP_temperature;BMP_pressure;BME280_temperature;BME280_humidity;BME280_pressure;Samples;Min_cycle;Max_cycle;Signal;HPM_P1;HPM_P2
2021/12/10 00:00:39;;;;;;;15.57;7.22;;;4.80;89.10;;;;;;5006319;28;20149;-75
2021/12/10 00:03:15;;;;;;;13.30;5.95;;;4.90;89.10;;;;;;5007628;28;20044;-76
2021/12/10 00:05:51;;;;;;;18.02;6.60;;;4.90;89.20;;;;;;5003374;28;20027;-77
2021/12/10 00:08:18;;;;;;;17.50;6.68;;;4.90;89.30;;;;;;5003544;28;20442;-77
2021/12/10 00:10:47;;;;;;;16.60;6.15;;;4.90;89.40;;;;;;5003464;28;20057;-78
2021/12/10 00:13:13;;;;;;;17.38;6.25;;;4.90;89.50;;;;;;5004613;28;20181;-78
2021/12/10 00:15:40;;;;;;;14.30;5.88;;;4.90;89.60;;;;;;5001583;28;20040;-77
2021/12/10 00:18:09;;;;;;;14.80;6.45;;;4.90;89.80;;;;;;5001483;28;20035;-77
2021/12/10 00:20:37;;;;;;;17.67;6.65;;;4.90;89.90;;;;;;5013442;28;20039;-75
2021/12/10 00:23:12;;;;;;;13.93;6.60;;;4.90;90.00;;;;;;5004571;28;20105;-77
2021/12/10 00:25:44;;;;;;;18.88;7.25;;;4.90;90.20;;;;;;5015495;28;20039;-75
2021/12/10 00:28:23;;;;;;;14.75;6.82;;;4.80;90.60;;;;;;5003997;28;20084;-79
2021/12/10 00:32:01;;;;;;;15.63;6.70;;;4.80;91.00;;;;;;5005818;28;20096;-75
2021/12/10 00:34:08;;;;;;;15.88;8.43;;;4.80;91.10;;;;;;4999527;28;20589;-76
2021/12/10 00:36:36;;;;;;;21.13;10.60;;;4.80;91.40;;;;;;5012977;28;20050;-77
2021/12/10 00:39:06;;;;;;;13.07;5.93;;;4.80;91.70;;;;;;5000672;28;20046;-77
2021/12/10 00:41:33;;;;;;;13.48;6.70;;;4.70;91.90;;;;;;5004708;28;20472;-75
2021/12/10 00:43:59;;;;;;;11.00;5.75;;;4.70;92.00;;;;;;5005556;28;20058;-76
2021/12/10 00:46:24;;;;;;;14.20;6.38;;;4.70;92.10;;;;;;5000813;28;20138;-77
2021/12/10 00:48:50;;;;;;;13.90;5.90;;;4.70;92.10;;;;;;5004551;28;20355;-77
2021/12/10 00:51:16;;;;;;;14.95;6.18;;;4.70;92.30;;;;;;5005187;28;20109;-77
2021/12/10 00:53:42;;;;;;;13.55;5.50;;;4.70;92.40;;;;;;5003878;28;20061;-77
2021/12/10 00:56:09;;;;;;;15.95;6.35;;;4.70;92.50;;;;;;5003057;28;20023;-75
2021/12/10 00:58:36;;;;;;;11.68;6.65;;;4.70;92.60;;;;;;5002184;28;20498;-76
2021/12/10 01:01:07;;;;;;;15.30;6.47;;;4.60;92.70;;;;;;5003911;28;20050;-75
2021/12/10 01:03:37;;;;;;;11.57;6.65;;;4.70;92.70;;;;;;5005022;28;20121;-77
2021/12/10 01:06:06;;;;;;;15.60;6.18;;;4.70;92.70;;;;;;5008561;28;20086;-76
2021/12/10 01:08:33;;;;;;;13.20;6.63;;;4.70;92.60;;;;;;5001505;28;20050;-75
2021/12/10 01:11:16;;;;;;;15.93;7.18;;;4.70;92.60;;;;;;5011405;28;20102;-74
2021/12/10 01:13:46;;;;;;;14.10;7.13;;;4.70;92.40;;;;;;5001338;28;20050;-77
2021/12/10 01:24:49;;;;;;;13.20;6.47;;;4.80;92.10;;;;;;5002138;28;20045;-78
2021/12/10 01:27:27;;;;;;;11.60;6.20;;;4.90;91.90;;;;;;5004160;28;20041;-78
2021/12/10 01:29:57;;;;;;;11.43;5.95;;;4.90;91.80;;;;;;5012090;28;20592;-76
2021/12/10 01:32:26;;;;;;;15.23;6.57;;;4.90;91.50;;;;;;5000109;28;20054;-77
2021/12/10 01:34:53;;;;;;;13.30;6.80;;;4.90;91.50;;;;;;5005371;28;20038;-75
2021/12/10 01:37:19;;;;;;;11.65;6.55;;;5.00;91.50;;;;;;5005087;28;20034;-77
2021/12/10 01:39:46;;;;;;;16.55;7.03;;;5.00;91.30;;;;;;5017972;28;20042;-76
2021/12/10 01:42:43;;;;;;;13.23;6.00;;;5.00;91.20;;;;;;5003662;28;20053;-78
2021/12/10 01:45:05;;;;;;;10.85;6.00;;;5.00;91.30;;;;;;5006074;28;20057;-75
2021/12/10 01:47:34;;;;;;;13.35;6.22;;;5.00;91.30;;;;;;5020345;28;20034;-76
2021/12/10 01:50:00;;;;;;;12.68;6.43;;;5.00;91.20;;;;;;5002575;28;20311;-76
2021/12/10 01:52:26;;;;;;;10.38;5.97;;;5.00;91.20;;;;;;4996536;28;20093;-77
2021/12/10 01:54:55;;;;;;;14.98;6.30;;;5.10;91.10;;;;;;5000278;28;20042;-77
2021/12/10 01:57:24;;;;;;;12.43;6.22;;;5.10;91.20;;;;;;5004246;28;20034;-78
2021/12/10 01:59:50;;;;;;;12.50;6.20;;;5.00;91.30;;;;;;5003506;28;20057;-76
2021/12/10 02:02:19;;;;;;;13.90;6.72;;;5.10;91.40;;;;;;5001751;28;20066;-78
2021/12/10 02:04:46;;;;;;;10.10;5.22;;;5.10;91.30;;;;;;5004647;28;20034;-77
2021/12/10 02:07:15;;;;;;;11.15;6.53;;;5.10;91.40;;;;;;5012917;28;20048;-78
2021/12/10 02:09:41;;;;;;;9.77;6.55;;;5.10;91.30;;;;;;5022182;28;20038;-78
2021/12/10 02:12:07;;;;;;;10.00;5.40;;;5.10;91.30;;;;;;5010804;28;20104;-78
2021/12/10 02:14:33;;;;;;;11.02;6.30;;;5.10;91.40;;;;;;5009836;28;20038;-77
2021/12/10 02:17:00;;;;;;;10.02;5.80;;;5.10;91.40;;;;;;5003900;28;20044;-78
2021/12/10 02:19:27;;;;;;;8.50;4.93;;;5.00;91.40;;;;;;5019351;28;20049;-78
2021/12/10 02:21:53;;;;;;;8.90;5.13;;;5.10;91.40;;;;;;5004981;28;20134;-78
2021/12/10 02:24:19;;;;;;;10.15;5.32;;;5.00;91.40;;;;;;5005509;28;20045;-78
2021/12/10 02:26:52;;;;;;;8.80;5.05;;;5.10;91.40;;;;;;5008647;28;20026;-77
2021/12/10 02:29:24;;;;;;;10.93;4.97;;;5.10;91.40;;;;;;5003887;28;20101;-76
2021/12/10 02:31:51;;;;;;;9.82;5.13;;;5.00;91.50;;;;;;5008818;28;20117;-78
2021/12/10 02:34:17;;;;;;;9.30;5.18;;;5.00;91.60;;;;;;5006161;28;20070;-77
2021/12/10 02:36:43;;;;;;;8.05;4.30;;;5.10;91.50;;;;;;5005787;28;20034;-77
2021/12/10 02:39:14;;;;;;;8.73;4.60;;;5.10;91.50;;;;;;5004634;28;20033;-76
2021/12/10 02:41:41;;;;;;;9.40;4.43;;;5.00;91.40;;;;;;5008805;28;20030;-77
2021/12/10 02:44:10;;;;;;;7.53;3.95;;;5.10;91.30;;;;;;5003959;28;20062;-77
2021/12/10 02:46:37;;;;;;;7.00;4.05;;;5.10;91.40;;;;;;5006570;28;20106;-77
2021/12/10 02:49:06;;;;;;;7.93;4.18;;;5.10;91.40;;;;;;5004988;28;20049;-78
2021/12/10 02:51:32;;;;;;;7.03;3.70;;;5.10;91.30;;;;;;5005064;28;20049;-75
2021/12/10 02:53:59;;;;;;;9.27;3.92;;;5.10;91.30;;;;;;5006919;28;20044;-77
2021/12/10 02:56:25;;;;;;;7.15;3.47;;;5.00;91.30;;;;;;5024562;28;20038;-77
2021/12/10 02:58:53;;;;;;;7.65;3.20;;;5.00;91.10;;;;;;5006429;28;20031;-78
2021/12/10 03:01:40;;;;;;;6.55;3.28;;;5.10;91.10;;;;;;5002400;28;20042;-78
2021/12/10 03:04:07;;;;;;;5.43;2.90;;;5.00;91.20;;;;;;5005144;28;20137;-77
2021/12/10 03:06:35;;;;;;;5.47;2.97;;;5.00;90.90;;;;;;5005587;28;20061;-77
2021/12/10 03:09:01;;;;;;;7.97;3.10;;;4.90;91.00;;;;;;5005071;28;20068;-75
2021/12/10 03:11:31;;;;;;;7.18;2.80;;;4.90;90.60;;;;;;5002913;28;20137;-78
2021/12/10 03:14:05;;;;;;;6.28;2.80;;;4.90;90.50;;;;;;5004748;28;20047;-77
2021/12/10 03:16:32;;;;;;;5.40;3.05;;;4.90;90.40;;;;;;5003366;28;20038;-76
2021/12/10 03:18:57;;;;;;;6.95;3.05;;;4.90;90.60;;;;;;5004781;28;20281;-78
2021/12/10 03:21:23;;;;;;;5.63;2.50;;;4.80;90.50;;;;;;5004372;28;20599;-77
2021/12/10 03:23:49;;;;;;;5.72;2.42;;;4.80;90.60;;;;;;5004527;28;20026;-79
2021/12/10 03:26:20;;;;;;;6.65;2.50;;;4.80;90.40;;;;;;5005804;28;20031;-77
2021/12/10 03:28:49;;;;;;;5.35;2.25;;;4.80;90.40;;;;;;5010776;28;20027;-78
2021/12/10 03:31:15;;;;;;;4.13;2.33;;;4.70;90.20;;;;;;5002536;28;20078;-77
2021/12/10 03:33:41;;;;;;;8.20;2.63;;;4.70;90.10;;;;;;5015108;28;20034;-77
2021/12/10 03:36:09;;;;;;;3.08;2.13;;;4.70;90.20;;;;;;5004228;28;20062;-77
2021/12/10 03:38:35;;;;;;;5.13;2.17;;;4.60;90.10;;;;;;5014720;28;20034;-78
2021/12/10 03:41:02;;;;;;;4.72;2.25;;;4.70;90.10;;;;;;5023048;28;20386;-75
2021/12/10 03:43:28;;;;;;;3.47;1.90;;;4.60;90.00;;;;;;5006654;28;20086;-79
2021/12/10 03:45:56;;;;;;;5.75;2.60;;;4.60;89.70;;;;;;5009515;28;20034;-77
2021/12/10 03:48:30;;;;;;;3.60;1.80;;;4.50;89.60;;;;;;5008039;28;20054;-76
2021/12/10 03:50:56;;;;;;;3.65;1.75;;;4.40;89.60;;;;;;5007476;28;20046;-77
2021/12/10 03:53:22;;;;;;;2.30;1.65;;;4.40;89.60;;;;;;5013371;28;20049;-78
2021/12/10 03:55:49;;;;;;;3.00;1.52;;;4.40;89.60;;;;;;5008457;28;20026;-79
2021/12/10 03:58:16;;;;;;;3.50;1.60;;;4.40;89.70;;;;;;5008044;28;20065;-80
2021/12/10 04:00:47;;;;;;;5.38;1.73;;;4.30;89.40;;;;;;5008320;28;20034;-79
2021/12/10 04:03:15;;;;;;;4.10;2.03;;;4.30;89.50;;;;;;5013988;28;20051;-76
2021/12/10 04:05:41;;;;;;;4.75;1.70;;;4.30;89.50;;;;;;5007473;28;20040;-78
2021/12/10 04:08:07;;;;;;;3.70;1.65;;;4.30;89.60;;;;;;5007703;28;20037;-77
2021/12/10 04:10:34;;;;;;;4.15;1.70;;;4.30;89.70;;;;;;5023239;28;20039;-76
2021/12/10 04:13:00;;;;;;;5.47;1.77;;;4.20;89.80;;;;;;5012855;28;20066;-76
2021/12/10 04:15:28;;;;;;;3.47;1.33;;;4.20;89.80;;;;;;5012471;28;20041;-76
2021/12/10 04:17:55;;;;;;;3.33;1.65;;;4.20;89.80;;;;;;5021448;28;20029;-76
2021/12/10 04:20:23;;;;;;;3.85;1.88;;;4.20;90.00;;;;;;5012017;28;21552;-77
2021/12/10 04:22:49;;;;;;;4.65;1.85;;;4.20;89.90;;;;;;5014784;28;20030;-77
2021/12/10 04:25:19;;;;;;;5.72;2.00;;;4.10;89.70;;;;;;5009724;28;20069;-76
2021/12/10 04:27:47;;;;;;;4.57;1.95;;;4.10;89.80;;;;;;5010998;28;20038;-77
2021/12/10 04:30:13;;;;;;;4.13;2.05;;;4.10;89.90;;;;;;5006180;28;20030;-76
2021/12/10 04:32:41;;;;;;;4.70;1.95;;;4.00;89.60;;;;;;5006816;28;20042;-76
2021/12/10 04:35:10;;;;;;;3.50;1.83;;;4.00;89.70;;;;;;5008488;28;20145;-77
2021/12/10 04:37:35;;;;;;;4.40;2.00;;;3.90;89.70;;;;;;5000463;28;20039;-77
2021/12/10 04:40:03;;;;;;;5.47;2.63;;;3.90;89.90;;;;;;5018959;28;20057;-75
2021/12/10 04:42:29;;;;;;;4.63;2.00;;;3.90;89.90;;;;;;5000123;28;20031;-75
2021/12/10 04:44:57;;;;;;;3.90;1.63;;;3.90;89.80;;;;;;5019612;28;20034;-76
2021/12/10 04:47:24;;;;;;;3.05;1.55;;;3.90;89.90;;;;;;5000516;28;20034;-77
2021/12/10 04:49:50;;;;;;;6.97;1.80;;;3.70;89.80;;;;;;5019372;28;20037;-77
2021/12/10 04:52:16;;;;;;;4.90;1.88;;;3.60;89.80;;;;;;5004578;28;20058;-76
2021/12/10 04:54:42;;;;;;;2.47;1.65;;;3.60;89.70;;;;;;5006746;28;20030;-76
2021/12/10 04:57:08;;;;;;;3.75;1.80;;;3.60;89.70;;;;;;5011493;28;20029;-76
2021/12/10 04:59:36;;;;;;;3.15;1.52;;;3.50;89.70;;;;;;5011948;28;20053;-76
2021/12/10 05:02:04;;;;;;;2.10;1.50;;;3.40;89.70;;;;;;5006570;28;20134;-76
2021/12/10 05:04:30;;;;;;;3.15;1.60;;;3.30;89.70;;;;;;5011259;28;20037;-75
2021/12/10 05:06:56;;;;;;;5.40;1.95;;;3.30;89.80;;;;;;5009935;28;20050;-75
2021/12/10 05:09:26;;;;;;;2.95;1.58;;;3.20;89.80;;;;;;5008113;28;20117;-77
2021/12/10 05:11:53;;;;;;;2.88;1.55;;;3.30;90.00;;;;;;4997144;28;20042;-75
2021/12/10 05:14:20;;;;;;;3.15;1.58;;;3.20;89.70;;;;;;5002381;28;20027;-74
2021/12/10 05:16:47;;;;;;;4.57;1.70;;;3.10;89.60;;;;;;4997057;28;20031;-77
2021/12/10 05:19:17;;;;;;;3.00;1.50;;;3.00;89.80;;;;;;4996517;28;20030;-76
2021/12/10 05:21:45;;;;;;;2.95;1.45;;;2.90;89.90;;;;;;5004640;28;20331;-76
2021/12/10 05:24:12;;;;;;;2.38;1.63;;;2.80;89.80;;;;;;4994253;28;20549;-77
2021/12/10 05:26:38;;;;;;;3.80;1.60;;;2.70;89.90;;;;;;5003627;28;20094;-77
2021/12/10 05:29:07;;;;;;;3.30;1.70;;;2.70;90.10;;;;;;5018353;28;20113;-76
2021/12/10 05:31:34;;;;;;;3.65;1.92;;;2.60;90.40;;;;;;4999313;28;20050;-75
2021/12/10 05:34:00;;;;;;;3.05;1.70;;;2.60;90.60;;;;;;5015130;28;20082;-76
2021/12/10 05:36:27;;;;;;;3.33;1.70;;;2.70;90.60;;;;;;4998292;28;21387;-76
2021/12/10 05:38:53;;;;;;;3.13;1.85;;;2.70;90.60;;;;;;5003821;28;20094;-76
2021/12/10 05:41:19;;;;;;;3.47;1.88;;;2.70;90.70;;;;;;5005686;28;20038;-78
2021/12/10 05:43:45;;;;;;;3.67;1.73;;;2.60;90.80;;;;;;4998557;28;20069;-79
2021/12/10 05:46:12;;;;;;;3.03;1.73;;;2.70;90.90;;;;;;5001884;28;20057;-75
2021/12/10 05:48:41;;;;;;;3.38;1.80;;;2.70;90.80;;;;;;4993450;28;20035;-79
2021/12/10 05:51:08;;;;;;;2.53;1.63;;;2.70;90.80;;;;;;5001598;28;20054;-78
2021/12/10 05:53:34;;;;;;;2.60;1.88;;;2.70;90.70;;;;;;5013001;28;20049;-77
2021/12/10 05:55:59;;;;;;;3.38;2.10;;;2.70;90.90;;;;;;5003371;28;20030;-77
2021/12/10 05:58:26;;;;;;;2.70;1.90;;;2.70;91.00;;;;;;5018515;28;20035;-76
2021/12/10 06:01:02;;;;;;;4.10;2.35;;;2.70;91.10;;;;;;5014804;28;20042;-77
2021/12/10 06:03:28;;;;;;;3.20;1.92;;;2.80;91.20;;;;;;5011538;28;20121;-77
2021/12/10 06:05:54;;;;;;;3.75;2.00;;;2.70;91.20;;;;;;4995572;28;20030;-76
2021/12/10 06:08:19;;;;;;;3.55;2.13;;;2.80;91.20;;;;;;5019574;28;20038;-76
2021/12/10 06:10:48;;;;;;;4.65;1.92;;;2.80;91.20;;;;;;5002193;28;20035;-77
2021/12/10 06:13:14;;;;;;;2.90;1.80;;;2.90;91.20;;;;;;4997112;28;20089;-76
2021/12/10 06:15:40;;;;;;;3.13;1.90;;;2.90;91.30;;;;;;4997875;28;20026;-77
2021/12/10 06:18:07;;;;;;;3.55;2.08;;;2.90;91.30;;;;;;5006044;28;20033;-78
2021/12/10 06:20:36;;;;;;;3.90;2.00;;;2.90;91.30;;;;;;5003627;28;20038;-76
2021/12/10 06:23:03;;;;;;;3.13;1.98;;;3.00;91.30;;;;;;5003783;28;20094;-75
2021/12/10 06:25:30;;;;;;;4.35;2.28;;;3.00;91.20;;;;;;4998816;28;20036;-76
2021/12/10 06:27:56;;;;;;;3.17;2.20;;;3.00;91.20;;;;;;5008012;28;20072;-78
2021/12/10 06:30:28;;;;;;;4.03;2.30;;;3.10;91.20;;;;;;5005448;28;20058;-76
2021/12/10 06:32:54;;;;;;;2.72;1.90;;;3.10;91.20;;;;;;4999295;28;20053;-76
2021/12/10 06:35:21;;;;;;;4.10;2.40;;;3.10;91.30;;;;;;4996928;28;20050;-77
2021/12/10 06:37:47;;;;;;;4.82;2.45;;;3.10;91.20;;;;;;5007486;28;20041;-79
2021/12/10 06:40:17;;;;;;;3.53;2.25;;;3.10;91.20;;;;;;5003557;28;20038;-77
2021/12/10 06:42:43;;;;;;;4.18;2.30;;;3.10;91.30;;;;;;5015998;28;20049;-77
2021/12/10 06:45:12;;;;;;;4.35;2.30;;;3.10;91.50;;;;;;5000280;28;20030;-79
2021/12/10 06:47:40;;;;;;;4.43;2.33;;;3.10;91.60;;;;;;5003144;28;20093;-77
2021/12/10 06:50:08;;;;;;;4.03;2.63;;;3.20;91.50;;;;;;5004920;28;20049;-76
2021/12/10 06:52:33;;;;;;;3.78;2.53;;;3.20;91.40;;;;;;5007341;28;20059;-77
2021/12/10 06:54:59;;;;;;;4.03;2.05;;;3.20;91.40;;;;;;5024431;28;20038;-76
2021/12/10 06:57:25;;;;;;;4.72;2.40;;;3.20;91.30;;;;;;5007453;28;20049;-75
2021/12/10 06:59:53;;;;;;;3.53;2.45;;;3.20;91.40;;;;;;5014335;28;20094;-76
2021/12/10 07:02:19;;;;;;;3.05;2.20;;;3.20;91.10;;;;;;5016145;28;20392;-77
2021/12/10 07:04:45;;;;;;;3.35;2.20;;;3.20;91.20;;;;;;5021541;28;20064;-75
2021/12/10 07:07:11;;;;;;;3.40;2.20;;;3.20;91.10;;;;;;5018370;28;20023;-78
2021/12/10 07:09:38;;;;;;;3.45;2.28;;;3.20;91.10;;;;;;5004521;28;20127;-77
2021/12/10 07:12:05;;;;;;;3.55;2.30;;;3.20;91.10;;;;;;5007023;28;20089;-76
2021/12/10 07:14:32;;;;;;;4.68;2.33;;;3.30;91.00;;;;;;5011819;28;20437;-77
2021/12/10 07:16:58;;;;;;;3.92;2.33;;;3.20;90.90;;;;;;5006150;28;20034;-72
2021/12/10 07:19:26;;;;;;;2.83;2.08;;;3.20;91.00;;;;;;5009490;28;20041;-71
2021/12/10 07:21:52;;;;;;;4.30;2.63;;;3.30;91.00;;;;;;5007838;28;20050;-72
2021/12/10 07:24:19;;;;;;;3.33;2.30;;;3.30;90.90;;;;;;5013149;28;20090;-72
2021/12/10 07:26:46;;;;;;;15.35;12.10;;;3.30;91.00;;;;;;5011912;28;20049;-72
2021/12/10 07:29:12;;;;;;;18.65;15.07;;;3.40;90.90;;;;;;5008340;28;20125;-71
2021/12/10 07:31:40;;;;;;;7.93;5.22;;;3.40;90.80;;;;;;5007093;28;20045;-71
2021/12/10 07:34:06;;;;;;;9.82;6.53;;;3.40;90.80;;;;;;5005028;28;20057;-71
2021/12/10 07:36:32;;;;;;;8.52;5.03;;;3.40;90.70;;;;;;5005889;28;20026;-71
2021/12/10 07:38:59;;;;;;;5.82;3.67;;;3.40;90.70;;;;;;5023034;28;20086;-71
2021/12/10 07:41:25;;;;;;;4.47;3.10;;;3.40;90.60;;;;;;5023385;28;20030;-71
2021/12/10 07:43:51;;;;;;;5.10;3.70;;;3.40;90.60;;;;;;5020725;28;20122;-72
2021/12/10 07:46:17;;;;;;;9.48;8.57;;;3.40;90.70;;;;;;5008284;28;20048;-71
2021/12/10 07:48:44;;;;;;;4.97;3.88;;;3.50;90.80;;;;;;5008976;28;20034;-71
2021/12/10 07:51:18;;;;;;;11.90;10.70;;;3.50;90.50;;;;;;5016378;28;20049;-71
2021/12/10 07:53:44;;;;;;;6.05;4.60;;;3.50;90.40;;;;;;5014910;28;20037;-71
2021/12/10 07:56:12;;;;;;;3.90;2.60;;;3.50;90.40;;;;;;5019985;28;20042;-71
2021/12/10 07:58:40;;;;;;;6.13;3.97;;;3.60;90.50;;;;;;5013452;28;20041;-69
2021/12/10 08:01:09;;;;;;;3.78;2.63;;;3.60;90.50;;;;;;5011639;28;20125;-70
2021/12/10 08:03:35;;;;;;;5.25;3.40;;;3.60;90.20;;;;;;5010613;28;20034;-72
2021/12/10 08:06:01;;;;;;;4.78;3.17;;;3.50;90.10;;;;;;5011167;28;20034;-72
2021/12/10 08:08:28;;;;;;;4.97;3.38;;;3.40;90.10;;;;;;5011703;28;20030;-73
2021/12/10 08:10:54;;;;;;;4.45;3.08;;;3.40;90.20;;;;;;5010306;28;20317;-70
2021/12/10 08:13:22;;;;;;;5.53;2.92;;;3.40;90.40;;;;;;5008222;28;20053;-70
2021/12/10 08:15:49;;;;;;;6.20;3.78;;;3.50;90.40;;;;;;5020287;28;20932;-72
2021/12/10 08:18:15;;;;;;;9.52;6.05;;;3.50;90.30;;;;;;5010788;28;20084;-70
2021/12/10 08:20:41;;;;;;;10.20;5.97;;;3.40;90.20;;;;;;5015388;28;20045;-70
2021/12/10 08:23:07;;;;;;;8.38;4.80;;;3.40;90.40;;;;;;5008260;28;20094;-71
2021/12/10 08:25:34;;;;;;;6.95;4.88;;;3.40;90.60;;;;;;5021800;28;20032;-72
2021/12/10 08:28:01;;;;;;;6.47;4.40;;;3.50;90.70;;;;;;5017863;28;20061;-71
2021/12/10 08:30:28;;;;;;;6.90;4.38;;;3.50;90.70;;;;;;4999151;28;20093;-71
2021/12/10 08:32:56;;;;;;;5.35;3.45;;;3.60;90.70;;;;;;4992976;28;20114;-71
2021/12/10 08:35:29;;;;;;;6.40;4.35;;;3.60;90.60;;;;;;4990034;28;20070;-70
2021/12/10 08:37:57;;;;;;;7.25;4.60;;;3.60;90.40;;;;;;4993274;28;20170;-70
2021/12/10 08:40:30;;;;;;;6.78;4.78;;;3.60;90.50;;;;;;4993637;28;20035;-69
2021/12/10 08:42:56;;;;;;;7.45;4.80;;;3.60;90.60;;;;;;4992807;28;20050;-70
2021/12/10 08:45:23;;;;;;;8.50;4.60;;;3.60;90.60;;;;;;4997797;28;20191;-72
2021/12/10 08:47:50;;;;;;;8.70;5.40;;;3.50;90.60;;;;;;4988345;28;20034;-71
2021/12/10 08:50:22;;;;;;;7.18;4.82;;;3.50;90.60;;;;;;4987748;28;20027;-71
2021/12/10 08:52:54;;;;;;;7.63;4.95;;;3.40;90.80;;;;;;4993863;28;20042;-71
2021/12/10 08:55:20;;;;;;;7.32;4.97;;;3.40;91.00;;;;;;4984139;28;20038;-70
2021/12/10 08:57:46;;;;;;;9.63;6.00;;;3.40;91.00;;;;;;4982273;28;20038;-69
2021/12/10 09:00:13;;;;;;;7.82;5.57;;;3.40;91.10;;;;;;4988746;28;20037;-71
2021/12/10 09:02:42;;;;;;;7.65;5.45;;;3.40;91.20;;;;;;4988338;28;20098;-71
2021/12/10 09:05:10;;;;;;;8.55;5.65;;;3.40;91.30;;;;;;4989572;28;20035;-71
2021/12/10 09:07:38;;;;;;;8.45;5.50;;;3.40;91.30;;;;;;4992762;28;20030;-69
2021/12/10 09:10:08;;;;;;;6.78;5.03;;;3.40;91.40;;;;;;4987875;28;20031;-72
2021/12/10 09:12:35;;;;;;;7.88;5.60;;;3.40;91.40;;;;;;4990109;28;20098;-73
2021/12/10 09:15:02;;;;;;;8.48;6.05;;;3.40;91.20;;;;;;4988834;28;20387;-72
2021/12/10 09:17:31;;;;;;;8.25;6.10;;;3.40;91.30;;;;;;4987891;28;20388;-73
2021/12/10 09:20:00;;;;;;;8.18;6.95;;;3.30;91.30;;;;;;4993451;28;20042;-71
2021/12/10 09:22:27;;;;;;;7.93;5.38;;;3.30;91.30;;;;;;4989179;28;20027;-71
2021/12/10 09:24:54;;;;;;;8.57;5.95;;;3.20;91.30;;;;;;4990140;28;20549;-71
2021/12/10 09:27:21;;;;;;;8.32;5.20;;;3.30;91.30;;;;;;4987997;28;20034;-72
2021/12/10 09:29:49;;;;;;;7.70;5.95;;;3.30;91.40;;;;;;4983891;28;20035;-71
2021/12/10 09:32:20;;;;;;;8.98;6.13;;;3.30;91.40;;;;;;4986660;28;20043;-71
2021/12/10 09:34:46;;;;;;;10.23;6.57;;;3.20;91.30;;;;;;4987837;28;20030;-71
2021/12/10 09:37:13;;;;;;;8.32;5.63;;;3.30;91.40;;;;;;4990708;28;20038;-70
2021/12/10 09:39:39;;;;;;;8.75;6.18;;;3.30;91.40;;;;;;4986704;28;20090;-71
2021/12/10 09:42:06;;;;;;;9.70;6.93;;;3.30;91.40;;;;;;4991971;28;20034;-72
2021/12/10 09:44:32;;;;;;;9.35;6.40;;;3.40;91.40;;;;;;4987770;28;20027;-71
2021/12/10 09:46:58;;;;;;;9.23;6.88;;;3.40;91.40;;;;;;4988510;28;20026;-71
2021/12/10 09:49:25;;;;;;;9.20;6.60;;;3.40;91.60;;;;;;4987017;28;20058;-71
2021/12/10 09:51:55;;;;;;;9.20;6.78;;;3.40;91.50;;;;;;4995881;28;20035;-70
2021/12/10 09:54:23;;;;;;;9.77;6.97;;;3.40;91.50;;;;;;4990366;28;20039;-71
2021/12/10 09:56:55;;;;;;;11.07;8.02;;;3.50;91.50;;;;;;4988847;28;20051;-69
2021/12/10 09:59:22;;;;;;;9.77;7.20;;;3.50;91.60;;;;;;4995488;28;20033;-71
2021/12/10 10:01:54;;;;;;;10.05;6.90;;;3.50;91.60;;;;;;4980352;28;20480;-70
2021/12/10 10:04:23;;;;;;;10.07;6.78;;;3.50;91.70;;;;;;4983063;28;20054;-71
2021/12/10 10:06:59;;;;;;;9.55;6.55;;;3.60;91.80;;;;;;4981660;28;20039;-71
2021/12/10 10:09:26;;;;;;;11.20;6.82;;;3.60;91.80;;;;;;4982049;28;20034;-70
2021/12/10 10:12:01;;;;;;;10.85;7.85;;;3.70;91.90;;;;;;4987571;28;20459;-70
2021/12/10 10:14:27;;;;;;;9.88;7.03;;;3.70;92.00;;;;;;4990935;28;20070;-72
2021/12/10 10:16:55;;;;;;;10.40;7.07;;;3.80;91.90;;;;;;4998307;28;20469;-71
2021/12/10 10:19:23;;;;;;;14.05;8.43;;;3.80;91.90;;;;;;5000032;28;20055;-71
2021/12/10 10:21:54;;;;;;;13.43;8.93;;;3.80;91.90;;;;;;4988602;28;20102;-73
2021/12/10 10:24:22;;;;;;;14.98;10.15;;;3.90;92.00;;;;;;4996332;28;20038;-72
2021/12/10 10:26:56;;;;;;;14.27;9.57;;;3.90;92.00;;;;;;4990308;28;20046;-70
2021/12/10 10:29:27;;;;;;;14.13;10.00;;;4.00;92.00;;;;;;4999508;28;20034;-70
2021/12/10 10:31:58;;;;;;;17.00;12.20;;;4.00;92.00;;;;;;4996428;28;20296;-71
2021/12/10 10:34:27;;;;;;;19.98;13.30;;;3.90;92.10;;;;;;4987919;28;20083;-70
2021/12/10 10:36:54;;;;;;;21.88;15.60;;;3.90;92.10;;;;;;4987958;28;20046;-70
2021/12/10 10:39:25;;;;;;;21.17;15.60;;;4.00;92.20;;;;;;4993197;28;20062;-71
2021/12/10 10:41:55;;;;;;;23.70;16.98;;;4.00;92.30;;;;;;4988757;28;20042;-71
2021/12/10 10:44:23;;;;;;;21.10;17.13;;;4.00;92.30;;;;;;4984023;28;20059;-71
2021/12/10 10:46:53;;;;;;;20.40;14.75;;;4.10;92.30;;;;;;4985362;28;20039;-70
2021/12/10 10:49:44;;;;;;;23.88;15.93;;;4.10;92.40;;;;;;4985134;28;20588;-71
2021/12/10 10:52:21;;;;;;;21.63;14.55;;;4.20;92.50;;;;;;4983211;28;20039;-72
2021/12/10 10:54:51;;;;;;;18.60;13.65;;;4.20;92.50;;;;;;4999765;28;20617;-72
2021/12/10 10:57:25;;;;;;;21.92;14.23;;;4.30;92.60;;;;;;4996603;28;20038;-72
2021/12/10 10:59:57;;;;;;;17.85;12.93;;;4.30;92.70;;;;;;4995595;28;20035;-72
2021/12/10 11:02:37;;;;;;;18.48;13.25;;;4.40;92.80;;;;;;4982790;28;20098;-72
2021/12/10 11:05:10;;;;;;;16.65;10.45;;;4.50;92.80;;;;;;4981297;28;20034;-71
2021/12/10 11:07:45;;;;;;;14.57;9.48;;;4.60;92.90;;;;;;4979079;28;20142;-71
2021/12/10 11:10:13;;;;;;;13.25;8.30;;;4.70;92.80;;;;;;4990450;28;20094;-72
2021/12/10 11:12:42;;;;;;;10.90;6.68;;;4.70;92.60;;;;;;4991646;28;20039;-71
2021/12/10 11:15:12;;;;;;;13.40;7.45;;;4.80;92.60;;;;;;4982795;28;20086;-72
2021/12/10 11:17:53;;;;;;;10.90;5.57;;;4.80;92.40;;;;;;4990793;28;20027;-71
2021/12/10 11:20:22;;;;;;;9.90;5.15;;;4.90;92.30;;;;;;4996703;28;20031;-70
2021/12/10 11:22:55;;;;;;;10.00;5.10;;;4.90;92.00;;;;;;4986446;28;20049;-72
2021/12/10 11:25:28;;;;;;;8.82;5.07;;;5.00;91.90;;;;;;4985411;28;20050;-71
2021/12/10 11:28:13;;;;;;;7.47;4.50;;;5.00;92.00;;;;;;4987280;28;20042;-70
2021/12/10 11:30:43;;;;;;;6.72;3.40;;;5.10;92.00;;;;;;4983457;28;20035;-71
2021/12/10 11:33:11;;;;;;;9.30;3.55;;;5.10;91.90;;;;;;4978047;28;20026;-70
2021/12/10 11:35:54;;;;;;;5.47;2.60;;;5.10;91.90;;;;;;4992667;28;20046;-70
2021/12/10 11:38:32;;;;;;;6.00;2.35;;;5.10;91.70;;;;;;4984467;28;20031;-71
2021/12/10 11:41:13;;;;;;;7.60;2.70;;;5.20;91.50;;;;;;4996770;28;20042;-71
2021/12/10 11:44:06;;;;;;;7.50;3.00;;;5.20;91.60;;;;;;4978118;28;20027;-71
2021/12/10 11:47:43;;;;;;;7.40;2.20;;;5.30;91.50;;;;;;5000098;28;20019;-71
2021/12/10 11:49:39;;;;;;;;;;;5.40;91.70;;;;;;4981446;28;20039;-71
2021/12/10 11:52:16;;;;;;;6.57;2.05;;;5.40;91.90;;;;;;4999113;28;19926;-72
2021/12/10 11:54:59;;;;;;;8.57;1.90;;;5.40;91.70;;;;;;4979037;28;20039;-71
2021/12/10 11:57:39;;;;;;;11.88;2.65;;;5.50;91.40;;;;;;4984409;28;20039;-69
2021/12/10 12:00:08;;;;;;;12.82;2.28;;;5.50;90.80;;;;;;4979534;28;20050;-71
2021/12/10 12:02:49;;;;;;;9.95;2.58;;;5.50;90.90;;;;;;5003190;28;20285;-70
2021/12/10 12:05:19;;;;;;;7.63;2.30;;;5.60;90.80;;;;;;4981137;28;20648;-70
2021/12/10 12:08:10;;;;;;;6.68;2.08;;;5.60;90.70;;;;;;4977161;28;20039;-70
2021/12/10 12:10:40;;;;;;;11.68;2.38;;;5.60;90.80;;;;;;4987549;28;20047;-71
2021/12/10 12:15:46;;;;;;;11.23;2.50;;;5.60;90.70;;;;;;4985535;28;20026;-71
2021/12/10 12:18:29;;;;;;;11.25;2.35;;;5.70;90.80;;;;;;4982493;28;20091;-72
2021/12/10 12:26:50;;;;;;;7.10;2.20;;;5.70;90.90;;;;;;4986437;28;20041;-72
2021/12/10 12:29:17;;;;;;;9.88;2.63;;;5.70;91.00;;;;;;4990930;28;20060;-72
2021/12/10 12:31:52;;;;;;;10.23;2.25;;;5.70;90.80;;;;;;4991673;28;20051;-72
2021/12/10 12:34:26;;;;;;;7.68;2.30;;;5.70;90.40;;;;;;4988074;28;20055;-69
2021/12/10 12:36:52;;;;;;;8.03;2.60;;;5.80;90.60;;;;;;4997472;28;20069;-70
2021/12/10 12:39:38;;;;;;;8.90;2.33;;;5.70;90.70;;;;;;4992375;28;20046;-70
2021/12/10 12:42:17;;;;;;;8.70;2.53;;;5.80;90.90;;;;;;4988229;28;20073;-72
2021/12/10 12:44:43;;;;;;;11.88;2.78;;;5.70;90.90;;;;;;4993910;28;20038;-71
2021/12/10 12:47:22;;;;;;;8.77;2.30;;;5.80;91.00;;;;;;4986619;28;20414;-71
2021/12/10 12:49:48;;;;;;;10.52;3.00;;;5.80;90.50;;;;;;4994270;28;20045;-70
2021/12/10 12:52:15;;;;;;;9.80;2.75;;;5.80;90.60;;;;;;5003116;28;20063;-71
2021/12/10 12:55:02;;;;;;;12.60;3.22;;;5.80;90.80;;;;;;4988533;28;20057;-72
2021/12/10 12:58:13;;;;;;;10.27;3.83;;;5.80;90.90;;;;;;4991297;28;20150;-73
2021/12/10 13:00:57;;;;;;;13.88;3.50;;;5.80;91.00;;;;;;4984550;28;20038;-70
2021/12/10 13:03:32;;;;;;;13.80;3.40;;;5.80;91.10;;;;;;4983768;28;20046;-70
2021/12/10 13:06:08;;;;;;;13.85;3.42;;;5.80;91.10;;;;;;5000584;28;20462;-72
2021/12/10 13:08:37;;;;;;;11.60;3.13;;;5.70;90.80;;;;;;4986847;28;20039;-70
2021/12/10 13:11:22;;;;;;;10.73;2.90;;;5.80;90.80;;;;;;4985995;28;20082;-70
2021/12/10 13:14:17;;;;;;;13.07;3.38;;;5.70;90.80;;;;;;5002555;28;20178;-72
2021/12/10 13:16:52;;;;;;;12.93;3.40;;;5.70;90.80;;;;;;4983699;28;20074;-70
2021/12/10 13:19:21;;;;;;;15.80;5.95;;;5.70;90.90;;;;;;4978524;28;20047;-70
2021/12/10 13:21:54;;;;;;;10.77;3.88;;;5.70;90.70;;;;;;4983743;28;20041;-69